Time;durP1;ratioP1;P1;durP2;ratioP2;P2;SDS_P1;SDS_P2;PMS_P1;PMS_P2;Temp;Humidity;BMP_temperature;BMP_pressure;BME280_temperature;BME280_humidity;BME280_pressure;Samples;Min_cycle;Max_cycle;Signal;HPM_P1;HPM_P2
2022/10/04 00:02:15;;;;;;;20.08;12.23;;;8.40;99.90;;;;;;5011864;28;20199;-84
2022/10/04 00:04:46;;;;;;;16.73;12.25;;;8.40;99.90;;;;;;5008542;28;20234;-85
2022/10/04 00:07:20;;;;;;;14.85;12.80;;;8.40;99.90;;;;;;5006897;28;20217;-84
2022/10/04 00:09:49;;;;;;;18.42;13.55;;;8.50;99.90;;;;;;5010395;28;20219;-85
2022/10/04 00:12:21;;;;;;;24.52;14.63;;;8.50;99.90;;;;;;5012895;28;20203;-83
2022/10/04 00:14:49;;;;;;;37.10;17.23;;;8.50;99.90;;;;;;5007525;28;20216;-86
2022/10/04 00:17:24;;;;;;;29.35;15.88;;;8.60;99.90;;;;;;5019672;28;20183;-85
2022/10/04 00:19:52;;;;;;;45.00;15.95;;;8.60;99.90;;;;;;5011104;28;20201;-85
2022/10/04 00:22:25;;;;;;;32.17;16.13;;;8.60;99.90;;;;;;5014476;28;20209;-85
2022/10/04 00:25:21;;;;;;;26.98;15.23;;;8.60;99.90;;;;;;5018202;28;20231;-86
2022/10/04 00:28:25;;;;;;;24.38;14.43;;;8.60;99.90;;;;;;5016765;28;20220;-86
2022/10/04 00:31:25;;;;;;;18.05;12.90;;;8.60;99.90;;;;;;5014275;28;20203;-85
2022/10/04 00:33:55;;;;;;;13.07;11.77;;;8.60;99.90;;;;;;5019330;28;20219;-86
2022/10/04 00:36:41;;;;;;;19.35;13.80;;;8.60;99.90;;;;;;5012285;28;20203;-86
2022/10/04 00:39:42;;;;;;;14.30;11.75;;;8.60;99.90;;;;;;5016316;28;20262;-85
2022/10/04 00:42:31;;;;;;;16.75;13.35;;;8.50;99.90;;;;;;5013059;28;20210;-86
2022/10/04 00:45:02;;;;;;;13.77;12.20;;;8.50;99.90;;;;;;5016389;28;20278;-86
2022/10/04 00:47:35;;;;;;;14.65;12.15;;;8.40;99.90;;;;;;5013850;28;20206;-84
2022/10/04 00:50:11;;;;;;;15.95;11.02;;;8.40;99.90;;;;;;5012753;28;20228;-86
2022/10/04 00:52:44;;;;;;;14.93;10.77;;;8.40;99.90;;;;;;5018700;28;20211;-82
2022/10/04 00:55:24;;;;;;;12.77;9.60;;;8.30;99.90;;;;;;5014721;28;20219;-85
2022/10/04 00:57:54;;;;;;;15.10;11.98;;;8.30;99.90;;;;;;5017431;28;20203;-83
2022/10/04 01:00:21;;;;;;;14.63;13.20;;;8.20;99.90;;;;;;5009595;28;20214;-85
2022/10/04 01:02:53;;;;;;;11.52;10.43;;;8.20;99.90;;;;;;5030264;28;20199;-82
2022/10/04 01:05:23;;;;;;;12.40;9.98;;;8.10;99.90;;;;;;5029650;28;20223;-82
2022/10/04 01:07:54;;;;;;;13.18;10.77;;;8.10;99.90;;;;;;5029677;28;20191;-86
2022/10/04 01:10:25;;;;;;;12.30;10.65;;;8.00;99.90;;;;;;5031763;28;20234;-84
2022/10/04 01:12:56;;;;;;;15.20;10.73;;;8.00;99.90;;;;;;5029237;28;20207;-86
2022/10/04 01:15:30;;;;;;;11.85;10.00;;;8.00;99.90;;;;;;5025472;28;20230;-85
2022/10/04 01:18:09;;;;;;;11.23;10.10;;;8.00;99.90;;;;;;5025326;28;20317;-86
2022/10/04 01:20:39;;;;;;;11.73;10.52;;;7.90;99.90;;;;;;5007120;28;20203;-85
2022/10/04 01:23:09;;;;;;;13.00;9.98;;;7.90;99.90;;;;;;5025042;28;20198;-84
2022/10/04 01:25:45;;;;;;;11.05;9.95;;;7.90;99.90;;;;;;5024843;28;20203;-84
2022/10/04 01:28:12;;;;;;;10.20;9.20;;;7.80;99.90;;;;;;5025176;28;20207;-86
2022/10/04 01:30:39;;;;;;;11.93;10.82;;;7.80;99.90;;;;;;5024693;28;20231;-86
2022/10/04 01:33:06;;;;;;;32.88;13.15;;;7.60;99.90;;;;;;5024627;28;20635;-86
2022/10/04 01:35:34;;;;;;;16.00;11.43;;;7.60;99.90;;;;;;5024818;28;20203;-86
2022/10/04 01:38:05;;;;;;;17.20;12.52;;;7.60;99.90;;;;;;5024085;28;20207;-84
2022/10/04 01:40:34;;;;;;;13.32;11.73;;;7.60;99.90;;;;;;5024945;28;20258;-86
2022/10/04 01:43:05;;;;;;;17.60;11.23;;;7.60;99.90;;;;;;5024809;28;20214;-84
2022/10/04 01:45:38;;;;;;;15.60;11.80;;;7.70;99.90;;;;;;5023643;28;20226;-85
2022/10/04 01:48:10;;;;;;;15.30;12.27;;;7.60;99.90;;;;;;5024775;28;20625;-84
2022/10/04 01:50:41;;;;;;;12.15;10.95;;;7.70;99.90;;;;;;5024087;28;20227;-84
2022/10/04 01:53:13;;;;;;;14.55;11.73;;;7.70;99.90;;;;;;5023795;28;20203;-86
2022/10/04 01:55:47;;;;;;;15.93;12.20;;;7.70;99.90;;;;;;5024231;28;20218;-85
2022/10/04 01:58:17;;;;;;;14.00;12.50;;;7.70;99.90;;;;;;5024043;28;20207;-86
2022/10/04 02:00:52;;;;;;;12.27;10.77;;;7.70;99.90;;;;;;5024833;28;20203;-82
2022/10/04 02:03:22;;;;;;;13.68;11.50;;;7.70;99.90;;;;;;5028864;28;20217;-86
2022/10/04 02:05:53;;;;;;;12.32;11.20;;;7.70;99.90;;;;;;5024068;28;20241;-84
2022/10/04 02:08:26;;;;;;;21.20;12.43;;;7.70;99.90;;;;;;5023154;28;20211;-84
2022/10/04 02:10:55;;;;;;;14.30;11.70;;;7.70;99.90;;;;;;5024121;28;20223;-84
2022/10/04 02:13:26;;;;;;;13.30;12.00;;;7.70;99.90;;;;;;5023352;28;20223;-85
2022/10/04 02:15:53;;;;;;;15.02;11.60;;;7.80;99.90;;;;;;5023822;28;20213;-85
2022/10/04 02:18:22;;;;;;;57.90;15.75;;;7.80;99.90;;;;;;5023867;28;20213;-85
2022/10/04 02:20:50;;;;;;;43.85;14.98;;;7.80;99.90;;;;;;5023207;28;20207;-86
2022/10/04 02:23:19;;;;;;;19.75;12.07;;;7.90;99.90;;;;;;5022721;28;20223;-85
2022/10/04 02:25:47;;;;;;;16.67;11.30;;;7.90;99.90;;;;;;5022990;28;20203;-85
2022/10/04 02:28:17;;;;;;;21.73;13.25;;;8.00;99.90;;;;;;5022378;28;20207;-85
2022/10/04 02:32:56;;;;;;;49.85;15.57;;;8.00;99.90;;;;;;5023015;28;20322;-84
2022/10/04 02:33:39;;;;;;;35.28;12.73;;;8.00;99.90;;;;;;5022250;28;20289;-85
2022/10/04 02:36:08;;;;;;;39.63;12.73;;;8.10;99.90;;;;;;5023693;28;20203;-85
2022/10/04 02:38:40;;;;;;;64.85;14.75;;;8.10;99.90;;;;;;5022207;28;20611;-85
2022/10/04 02:41:12;;;;;;;102.78;19.73;;;8.10;99.90;;;;;;5022386;28;20210;-85
2022/10/04 02:43:46;;;;;;;53.42;15.10;;;8.10;99.90;;;;;;5021442;28;20234;-84
2022/10/04 02:46:18;;;;;;;17.73;12.25;;;8.10;99.90;;;;;;5022487;28;20210;-85
2022/10/04 02:48:48;;;;;;;13.95;10.32;;;8.20;99.90;;;;;;5022489;28;20203;-85
2022/10/04 02:51:20;;;;;;;20.92;12.02;;;8.20;99.90;;;;;;5021795;28;20596;-86
2022/10/04 02:54:01;;;;;;;21.77;11.10;;;8.20;99.90;;;;;;5028206;28;20218;-82
2022/10/04 02:56:28;;;;;;;14.57;10.70;;;8.20;99.90;;;;;;5022781;28;20195;-85
2022/10/04 02:59:01;;;;;;;11.23;10.25;;;8.20;99.90;;;;;;5023191;28;20207;-84
2022/10/04 03:01:40;;;;;;;9.68;8.85;;;8.20;99.90;;;;;;5022201;28;20195;-85
2022/10/04 03:04:11;;;;;;;10.55;9.52;;;8.10;99.90;;;;;;5023570;28;20647;-85
2022/10/04 03:06:38;;;;;;;10.00;9.10;;;8.10;99.90;;;;;;5022604;28;20203;-86
2022/10/04 03:09:06;;;;;;;9.45;8.65;;;8.10;99.90;;;;;;5022220;28;20203;-86
2022/10/04 03:11:36;;;;;;;9.63;8.82;;;8.10;99.90;;;;;;5022428;28;20569;-85
2022/10/04 03:14:09;;;;;;;10.95;10.07;;;8.00;99.90;;;;;;5022903;28;20235;-84
2022/10/04 03:16:37;;;;;;;9.20;8.50;;;8.00;99.90;;;;;;5022422;28;20210;-85
2022/10/04 03:19:05;;;;;;;9.80;8.98;;;8.00;99.90;;;;;;5022002;28;20195;-85
2022/10/04 03:21:33;;;;;;;9.43;8.73;;;7.90;99.90;;;;;;5003219;28;20207;-86
2022/10/04 03:24:01;;;;;;;8.73;8.02;;;7.90;99.90;;;;;;5002425;28;20685;-84
2022/10/04 03:26:32;;;;;;;10.45;9.65;;;7.80;99.90;;;;;;5020440;28;20203;-86
2022/10/04 03:28:59;;;;;;;9.07;8.30;;;7.80;99.90;;;;;;5021934;28;20203;-85
2022/10/04 03:31:29;;;;;;;8.75;7.88;;;7.80;99.90;;;;;;5021929;28;20234;-85
2022/10/04 03:33:57;;;;;;;9.98;9.13;;;7.80;99.90;;;;;;5022398;28;20237;-84
2022/10/04 03:36:25;;;;;;;11.38;9.88;;;7.70;99.90;;;;;;5021028;28;20203;-86
2022/10/04 03:38:55;;;;;;;10.23;9.25;;;7.70;99.90;;;;;;5021962;28;20234;-85
2022/10/04 03:41:24;;;;;;;9.25;8.45;;;7.60;99.90;;;;;;5021526;28;20202;-86
2022/10/04 03:43:53;;;;;;;8.65;7.82;;;7.60;99.90;;;;;;5021925;28;20237;-86
2022/10/04 03:46:22;;;;;;;8.25;7.55;;;7.60;99.90;;;;;;5029305;28;20203;-84
2022/10/04 03:48:53;;;;;;;9.07;8.25;;;7.60;99.90;;;;;;5022591;28;20207;-86
2022/10/04 03:51:22;;;;;;;8.88;8.07;;;7.60;99.90;;;;;;5022349;28;20237;-86
2022/10/04 03:53:51;;;;;;;9.18;8.48;;;7.50;99.90;;;;;;5021549;28;20231;-85
2022/10/04 03:56:25;;;;;;;10.15;9.15;;;7.50;99.90;;;;;;5022060;28;20199;-86
2022/10/04 03:58:53;;;;;;;8.50;7.90;;;7.50;99.90;;;;;;5021846;28;20211;-85
2022/10/04 04:01:37;;;;;;;9.20;8.38;;;7.40;99.90;;;;;;5021495;28;20672;-86
2022/10/04 04:04:16;;;;;;;10.40;9.52;;;7.40;99.90;;;;;;5022056;28;20233;-86
2022/10/04 04:06:51;;;;;;;10.38;9.57;;;7.40;99.90;;;;;;5033218;28;20190;-82
2022/10/04 04:09:23;;;;;;;12.35;10.65;;;7.40;99.90;;;;;;5036225;28;20202;-82
2022/10/04 04:11:51;;;;;;;10.60;9.60;;;7.40;99.90;;;;;;5029877;28;20219;-85
2022/10/04 04:14:24;;;;;;;11.55;10.45;;;7.30;99.90;;;;;;5023103;28;20227;-85
2022/10/04 04:16:52;;;;;;;11.15;10.13;;;7.40;99.90;;;;;;5003692;28;20203;-85
2022/10/04 04:19:25;;;;;;;12.65;11.60;;;7.40;99.90;;;;;;5002660;28;20204;-82
2022/10/04 04:21:55;;;;;;;11.95;10.75;;;7.40;99.90;;;;;;5021590;28;20207;-85
2022/10/04 04:24:25;;;;;;;14.27;12.75;;;7.40;99.90;;;;;;5022505;28;20246;-86
2022/10/04 04:26:58;;;;;;;12.63;11.50;;;7.40;99.90;;;;;;5002702;28;20199;-86
2022/10/04 04:29:31;;;;;;;11.70;10.60;;;7.40;99.90;;;;;;5002370;28;20234;-86
2022/10/04 04:32:00;;;;;;;11.88;10.77;;;7.40;99.90;;;;;;5015305;28;20210;-85
2022/10/04 04:34:32;;;;;;;12.70;11.40;;;7.40;99.90;;;;;;5022247;28;20233;-86
2022/10/04 04:37:00;;;;;;;12.18;10.98;;;7.40;99.90;;;;;;5002462;28;20220;-86
2022/10/04 04:39:36;;;;;;;11.65;10.55;;;7.50;99.90;;;;;;5010106;28;20271;-85
2022/10/04 04:42:06;;;;;;;11.52;10.48;;;7.40;99.90;;;;;;5022987;28;20290;-85
2022/10/04 04:44:33;;;;;;;11.73;10.52;;;7.40;99.90;;;;;;5023663;28;20227;-83
2022/10/04 04:47:00;;;;;;;11.02;9.90;;;7.40;99.90;;;;;;5029514;28;20223;-83
2022/10/04 04:49:30;;;;;;;11.68;10.57;;;7.40;99.90;;;;;;5029058;28;20310;-83
2022/10/04 04:51:57;;;;;;;10.55;9.55;;;7.30;99.90;;;;;;5009043;28;20238;-82
2022/10/04 04:54:27;;;;;;;15.93;10.65;;;7.40;99.90;;;;;;5008647;28;20286;-84
2022/10/04 04:56:56;;;;;;;10.25;8.77;;;7.30;99.90;;;;;;5028624;28;20203;-83
2022/10/04 04:59:26;;;;;;;9.45;8.55;;;7.30;99.90;;;;;;5029018;28;20231;-83
2022/10/04 05:01:53;;;;;;;10.70;9.68;;;7.30;99.90;;;;;;5028007;28;20230;-83
2022/10/04 05:04:21;;;;;;;9.48;8.60;;;7.30;99.90;;;;;;5028806;28;20231;-83
2022/10/04 05:07:01;;;;;;;9.98;8.90;;;7.30;99.90;;;;;;5031750;28;20213;-83
2022/10/04 05:09:30;;;;;;;10.90;9.05;;;7.30;99.90;;;;;;5032546;28;20226;-83
2022/10/04 05:12:06;;;;;;;11.13;9.35;;;7.30;99.90;;;;;;5032381;28;20290;-83
2022/10/04 05:14:33;;;;;;;9.52;8.65;;;7.20;99.90;;;;;;5032328;28;20269;-83
2022/10/04 05:17:00;;;;;;;9.25;8.25;;;7.30;99.90;;;;;;5031633;28;20595;-82
2022/10/04 05:19:30;;;;;;;10.93;9.68;;;7.30;99.90;;;;;;5032025;28;20209;-82
2022/10/04 05:22:00;;;;;;;10.80;9.73;;;7.20;99.90;;;;;;5032274;28;20207;-83
2022/10/04 05:24:30;;;;;;;9.40;8.50;;;7.20;99.90;;;;;;5031706;28;20226;-83
2022/10/04 05:26:59;;;;;;;8.85;7.97;;;7.20;99.90;;;;;;5031804;28;20877;-81
2022/10/04 05:29:31;;;;;;;10.50;9.10;;;7.20;99.90;;;;;;5032428;28;20211;-83
2022/10/04 05:32:08;;;;;;;9.15;8.20;;;7.30;99.90;;;;;;5035751;28;20234;-84
2022/10/04 05:34:39;;;;;;;10.00;9.05;;;7.20;99.90;;;;;;5033987;28;20233;-83
2022/10/04 05:37:28;;;;;;;9.65;8.73;;;7.20;99.90;;;;;;5014057;28;20208;-84
2022/10/04 05:40:06;;;;;;;10.95;9.90;;;7.20;99.90;;;;;;5019865;28;20195;-83
2022/10/04 05:42:38;;;;;;;10.70;9.55;;;7.20;99.90;;;;;;5032463;28;20211;-83
2022/10/04 05:45:16;;;;;;;11.05;9.10;;;7.30;99.90;;;;;;5025536;28;20234;-86
2022/10/04 05:47:43;;;;;;;10.73;9.80;;;7.30;99.90;;;;;;5020053;28;20195;-84
2022/10/04 05:50:17;;;;;;;12.00;10.70;;;7.40;99.90;;;;;;5018215;28;20296;-84
2022/10/04 05:52:48;;;;;;;11.52;10.32;;;7.40;99.90;;;;;;5019398;28;20211;-84
2022/10/04 05:55:21;;;;;;;12.52;10.10;;;7.50;99.90;;;;;;5020433;28;20235;-84
2022/10/04 05:58:16;;;;;;;14.38;10.20;;;7.60;99.90;;;;;;5019157;28;20300;-84
2022/10/04 06:00:55;;;;;;;10.63;9.63;;;7.60;99.90;;;;;;5020639;28;20203;-86
2022/10/04 06:03:38;;;;;;;11.63;9.90;;;7.70;99.90;;;;;;5026342;28;20613;-87
2022/10/04 06:06:16;;;;;;;12.07;11.02;;;7.70;99.90;;;;;;5026884;28;20207;-86
2022/10/04 06:08:55;;;;;;;11.27;10.13;;;7.80;99.90;;;;;;5025914;28;20202;-86
2022/10/04 06:11:32;;;;;;;11.05;9.80;;;7.90;99.90;;;;;;5023074;28;20309;-86
2022/10/04 06:14:40;;;;;;;11.60;10.43;;;8.00;99.90;;;;;;5019887;28;20267;-87
2022/10/04 06:17:37;;;;;;;10.98;9.88;;;8.10;99.90;;;;;;5017296;28;20739;-86
2022/10/04 06:20:40;;;;;;;12.02;10.57;;;8.20;99.90;;;;;;5017955;28;20233;-88
2022/10/04 06:23:13;;;;;;;12.05;10.73;;;8.30;99.90;;;;;;5028927;28;20258;-87
2022/10/04 06:25:49;;;;;;;11.80;10.75;;;8.30;99.90;;;;;;4999734;28;20591;-85
2022/10/04 06:28:24;;;;;;;11.57;10.48;;;8.40;99.90;;;;;;5004258;28;20215;-86
2022/10/04 06:31:14;;;;;;;11.85;10.15;;;8.50;99.90;;;;;;5016970;28;20217;-86
2022/10/04 06:33:57;;;;;;;11.15;10.20;;;8.60;99.90;;;;;;5020421;28;20281;-86
2022/10/04 06:36:41;;;;;;;12.50;11.25;;;8.60;99.90;;;;;;5013758;28;20282;-86
2022/10/04 06:40:02;;;;;;;10.43;9.30;;;8.70;99.90;;;;;;5007818;28;20280;-85
2022/10/04 06:43:10;;;;;;;12.13;10.75;;;8.80;99.90;;;;;;4982538;28;20688;-87
2022/10/04 06:45:50;;;;;;;15.10;10.73;;;8.90;99.90;;;;;;4987226;28;20215;-86
2022/10/04 06:48:34;;;;;;;11.07;9.93;;;9.00;99.90;;;;;;5010133;28;20254;-86
2022/10/04 06:51:12;;;;;;;14.32;10.38;;;9.10;99.90;;;;;;5004541;28;20212;-86
2022/10/04 06:53:54;;;;;;;14.82;12.20;;;9.20;99.90;;;;;;5016942;28;20220;-86
2022/10/04 06:56:35;;;;;;;15.15;12.07;;;9.30;99.90;;;;;;4994580;28;20263;-86
2022/10/04 06:59:41;;;;;;;13.27;11.98;;;9.40;99.90;;;;;;4994179;28;20271;-87
2022/10/04 07:02:14;;;;;;;12.95;11.88;;;9.50;99.90;;;;;;4993614;28;20274;-86
2022/10/04 07:04:46;;;;;;;12.75;11.65;;;9.60;99.90;;;;;;5011059;28;20734;-84
2022/10/04 07:07:33;;;;;;;15.75;12.48;;;9.80;99.90;;;;;;5017071;28;20197;-86
2022/10/04 07:10:13;;;;;;;10.83;9.70;;;9.80;99.90;;;;;;5016734;28;20294;-86
2022/10/04 07:12:43;;;;;;;15.55;11.25;;;9.90;99.90;;;;;;5008394;28;20486;-85
2022/10/04 07:15:18;;;;;;;14.52;10.10;;;10.00;99.90;;;;;;5028071;28;20221;-86
2022/10/04 07:17:47;;;;;;;12.93;9.20;;;10.10;99.90;;;;;;5038371;28;20235;-87
2022/10/04 07:20:20;;;;;;;11.93;9.43;;;10.20;99.90;;;;;;5037983;28;20438;-87
2022/10/04 07:22:51;;;;;;;10.07;9.17;;;10.30;99.90;;;;;;5010792;28;20433;-85
2022/10/04 07:25:22;;;;;;;10.73;9.63;;;10.50;99.90;;;;;;5016513;28;20475;-86
2022/10/04 07:29:19;;;;;;;10.50;9.33;;;10.60;99.90;;;;;;5004544;28;20441;-86
2022/10/04 07:30:47;;;;;;;10.90;7.47;;;10.70;99.90;;;;;;4995533;28;20847;-86
2022/10/04 07:33:18;;;;;;;12.10;10.93;;;10.80;99.90;;;;;;4993361;28;20427;-86
2022/10/04 07:39:01;;;;;;;10.40;9.40;;;10.90;99.90;;;;;;4982303;28;20820;-87
2022/10/04 07:41:34;;;;;;;9.13;7.83;;;11.00;99.90;;;;;;5001235;28;20454;-87
2022/10/04 07:44:29;;;;;;;8.90;8.03;;;11.10;99.90;;;;;;5014077;28;21070;-86
2022/10/04 07:47:01;;;;;;;9.20;7.80;;;11.20;99.90;;;;;;5014739;28;20460;-83
2022/10/04 07:49:38;;;;;;;8.23;7.57;;;11.30;99.90;;;;;;5019498;28;20453;-86
2022/10/04 07:52:48;;;;;;;9.70;8.20;;;11.40;99.90;;;;;;5017656;28;20541;-88
2022/10/04 07:55:36;;;;;;;12.50;7.93;;;11.50;99.90;;;;;;5018571;28;21065;-81
2022/10/04 07:58:20;;;;;;;10.00;7.80;;;11.70;99.90;;;;;;4993212;28;20482;-87
2022/10/04 08:00:55;;;;;;;8.50;7.70;;;11.80;99.90;;;;;;4993946;28;21139;-87
2022/10/04 08:03:38;;;;;;;7.63;6.47;;;11.90;99.90;;;;;;4995779;28;20441;-86
2022/10/04 08:06:21;;;;;;;8.03;6.87;;;12.00;99.90;;;;;;5012318;28;20537;-86
2022/10/04 08:16:50;;;;;;;7.73;6.87;;;12.50;99.90;;;;;;5108435;23;20490;-83
2022/10/04 17:27:15;;;;;;;4.00;3.70;;;16.50;99.90;;;;;;4963062;28;20440;-84
2022/10/04 17:29:53;;;;;;;5.27;3.93;;;16.30;99.90;;;;;;4961096;28;20469;-84
2022/10/04 17:32:27;;;;;;;5.13;4.40;;;16.10;99.90;;;;;;4984934;28;20491;-81
2022/10/04 17:35:08;;;;;;;5.57;5.00;;;16.00;99.90;;;;;;4981181;28;20883;-86
2022/10/04 17:37:46;;;;;;;4.83;4.43;;;15.90;99.90;;;;;;4963498;28;20500;-84
2022/10/04 17:40:30;;;;;;;5.47;4.97;;;15.90;99.90;;;;;;4980334;28;20459;-85
2022/10/04 17:43:10;;;;;;;5.10;4.10;;;15.70;99.90;;;;;;4979599;28;20516;-84
2022/10/04 17:46:00;;;;;;;5.03;3.87;;;15.60;99.90;;;;;;4980834;28;20475;-84
2022/10/04 17:57:23;;;;;;;6.90;5.63;;;15.30;99.90;;;;;;4980476;28;20446;-84
2022/10/04 17:59:57;;;;;;;6.03;5.37;;;15.20;99.90;;;;;;4979907;28;20488;-84
2022/10/04 18:02:39;;;;;;;8.13;7.33;;;15.10;99.90;;;;;;4980120;28;20444;-83
2022/10/04 18:05:18;;;;;;;8.33;7.50;;;15.00;99.90;;;;;;4979834;28;20475;-84
2022/10/04 18:07:52;;;;;;;7.43;6.83;;;14.90;99.90;;;;;;4979796;28;20452;-84
2022/10/04 18:10:26;;;;;;;6.00;5.40;;;14.80;99.90;;;;;;4979869;28;20462;-84
2022/10/04 18:12:58;;;;;;;5.43;4.67;;;14.70;99.90;;;;;;4979178;28;20492;-85
2022/10/04 18:15:31;;;;;;;5.10;4.60;;;14.70;99.90;;;;;;4981180;28;20986;-84
2022/10/04 18:18:14;;;;;;;7.90;5.60;;;14.60;99.90;;;;;;4980435;28;20456;-84
2022/10/04 18:21:00;;;;;;;6.10;5.50;;;14.60;99.90;;;;;;4981232;28;20456;-83
2022/10/04 18:23:29;;;;;;;7.40;5.63;;;14.50;99.90;;;;;;4979811;28;20476;-84
2022/10/04 18:25:59;;;;;;;6.57;6.07;;;14.50;99.90;;;;;;4980356;28;20451;-84
2022/10/04 18:28:26;;;;;;;7.93;6.27;;;14.40;99.90;;;;;;4984293;28;20440;-84
2022/10/04 18:30:59;;;;;;;7.17;5.70;;;14.30;99.90;;;;;;4973245;28;20464;-84
2022/10/04 18:33:30;;;;;;;4.97;4.47;;;14.20;99.90;;;;;;4974184;28;20495;-84
2022/10/04 18:36:03;;;;;;;5.53;5.03;;;14.10;99.90;;;;;;4972658;28;20506;-84
2022/10/04 18:38:31;;;;;;;5.70;5.00;;;14.10;99.90;;;;;;4971587;28;20551;-84
2022/10/04 18:41:00;;;;;;;6.53;5.87;;;14.00;99.90;;;;;;4968172;28;20444;-84
2022/10/04 18:43:31;;;;;;;5.43;4.97;;;14.00;99.90;;;;;;4972008;28;20464;-84
2022/10/04 18:46:03;;;;;;;4.70;4.27;;;13.90;99.90;;;;;;4971613;28;20456;-84
2022/10/04 18:48:44;;;;;;;7.37;5.60;;;13.90;99.90;;;;;;4973084;28;20538;-84
2022/10/04 18:51:24;;;;;;;4.97;4.53;;;13.80;99.90;;;;;;4970266;28;20459;-84
2022/10/04 18:54:00;;;;;;;6.40;5.73;;;13.70;99.90;;;;;;4972052;28;20881;-84
2022/10/04 18:56:29;;;;;;;5.73;5.23;;;13.70;99.90;;;;;;4969183;28;20448;-84
2022/10/04 19:02:08;;;;;;;5.40;5.00;;;13.70;99.90;;;;;;4971220;28;20925;-84
2022/10/04 19:04:44;;;;;;;6.33;5.10;;;13.60;99.90;;;;;;4970606;28;20503;-84
2022/10/04 19:07:14;;;;;;;8.80;5.80;;;13.50;99.90;;;;;;4969080;28;20451;-84
2022/10/04 19:10:02;;;;;;;5.30;4.90;;;13.50;99.90;;;;;;4969554;28;20472;-84
2022/10/04 19:12:36;;;;;;;9.10;5.20;;;13.50;99.90;;;;;;4987013;28;20483;-83
2022/10/04 19:15:11;;;;;;;7.17;5.43;;;13.40;99.90;;;;;;4986268;28;20471;-82
2022/10/04 19:17:49;;;;;;;5.33;4.83;;;13.40;99.90;;;;;;4977713;28;20953;-83
2022/10/04 19:20:21;;;;;;;8.00;6.47;;;13.30;99.90;;;;;;4971474;28;20459;-84
2022/10/04 19:22:59;;;;;;;5.83;5.27;;;13.30;99.90;;;;;;4976594;28;20432;-82
2022/10/04 19:25:35;;;;;;;6.60;6.00;;;13.20;99.90;;;;;;4974434;28;20471;-84
2022/10/04 19:28:06;;;;;;;7.80;5.60;;;13.20;99.90;;;;;;4971655;28;20458;-84
2022/10/04 19:30:48;;;;;;;6.00;5.30;;;13.10;99.90;;;;;;4968850;28;20517;-85
2022/10/04 19:33:21;;;;;;;5.77;5.30;;;13.00;99.90;;;;;;4974505;28;20872;-83
2022/10/04 19:36:01;;;;;;;6.20;5.70;;;12.90;99.90;;;;;;4978601;28;20459;-84
2022/10/04 19:38:43;;;;;;;7.07;6.47;;;12.90;99.90;;;;;;4959639;29;20463;-84
2022/10/04 19:41:20;;;;;;;7.13;6.43;;;12.90;99.90;;;;;;4964018;28;20441;-84
2022/10/04 19:43:54;;;;;;;9.33;7.53;;;12.90;99.90;;;;;;4981592;28;20471;-84
2022/10/04 19:46:31;;;;;;;6.47;5.93;;;12.90;99.90;;;;;;4982286;28;20443;-84
2022/10/04 19:48:59;;;;;;;8.67;6.57;;;12.90;99.90;;;;;;4980669;28;20443;-84
2022/10/04 19:51:34;;;;;;;6.23;5.73;;;12.90;99.90;;;;;;4980952;28;20459;-84
2022/10/04 19:54:07;;;;;;;7.07;6.40;;;12.90;99.90;;;;;;4982491;28;20497;-84
2022/10/04 19:56:38;;;;;;;7.23;6.50;;;12.90;99.90;;;;;;4982499;28;20855;-84
2022/10/04 19:59:08;;;;;;;5.97;5.47;;;12.80;99.90;;;;;;4983108;28;20797;-84
2022/10/04 20:01:37;;;;;;;6.30;5.80;;;12.80;99.90;;;;;;4983259;28;20535;-84
2022/10/04 20:06:57;;;;;;;8.80;7.17;;;12.80;99.90;;;;;;4982900;28;20430;-84
2022/10/04 20:09:30;;;;;;;9.40;6.67;;;12.70;99.90;;;;;;4975001;28;20463;-84
2022/10/04 20:11:58;;;;;;;7.00;6.00;;;12.70;99.90;;;;;;4973287;28;20449;-83
2022/10/04 20:15:14;;;;;;;6.70;6.17;;;12.70;99.90;;;;;;4968162;28;20485;-84
2022/10/04 20:17:42;;;;;;;5.93;5.43;;;12.70;99.90;;;;;;4988895;28;20459;-83
2022/10/04 20:20:14;;;;;;;6.33;5.70;;;12.60;99.90;;;;;;4988125;28;20446;-84
2022/10/04 20:22:57;;;;;;;5.70;5.27;;;12.60;99.90;;;;;;4985079;28;20457;-85
2022/10/04 20:25:59;;;;;;;7.73;6.17;;;12.60;99.90;;;;;;4985273;28;20483;-84
2022/10/04 20:28:40;;;;;;;7.13;6.30;;;12.50;99.90;;;;;;4985267;28;20563;-84
2022/10/04 20:31:08;;;;;;;5.87;5.47;;;12.50;99.90;;;;;;4985299;28;20467;-84
2022/10/04 20:33:44;;;;;;;8.43;7.47;;;12.40;99.90;;;;;;4986044;28;20510;-84
2022/10/04 20:36:33;;;;;;;7.83;6.60;;;12.30;99.90;;;;;;4983448;28;20450;-82
2022/10/04 20:39:02;;;;;;;6.67;6.17;;;12.30;99.90;;;;;;4984334;28;20461;-84
2022/10/04 20:42:21;;;;;;;7.03;6.43;;;12.30;99.90;;;;;;4983033;28;20817;-83
2022/10/04 20:44:56;;;;;;;5.33;4.90;;;12.30;99.90;;;;;;4964300;28;20475;-83
2022/10/04 20:47:42;;;;;;;6.37;5.77;;;12.20;99.90;;;;;;4964165;29;20440;-84
2022/10/04 20:50:22;;;;;;;6.47;5.97;;;12.20;99.90;;;;;;4969543;28;20500;-83
2022/10/04 20:52:52;;;;;;;6.60;5.17;;;12.20;99.90;;;;;;4982280;28;20475;-84
2022/10/04 20:55:27;;;;;;;6.10;5.60;;;12.20;99.90;;;;;;4982274;28;20478;-84
2022/10/04 20:57:59;;;;;;;8.40;5.90;;;12.10;99.90;;;;;;4983670;28;20448;-83
2022/10/04 21:00:27;;;;;;;7.47;6.87;;;12.10;99.90;;;;;;4985147;28;20449;-85
2022/10/04 21:03:08;;;;;;;7.07;6.37;;;12.10;99.90;;;;;;4984217;28;20450;-83
2022/10/04 21:05:35;;;;;;;11.70;7.10;;;12.00;99.90;;;;;;4982911;28;21032;-85
2022/10/04 21:08:13;;;;;;;8.47;7.07;;;12.00;99.90;;;;;;4982870;28;20455;-83
2022/10/04 21:11:03;;;;;;;10.07;6.50;;;12.00;99.90;;;;;;4982324;28;20461;-83
2022/10/04 21:13:58;;;;;;;7.80;5.60;;;12.00;99.90;;;;;;4981971;28;20971;-83
2022/10/04 21:16:39;;;;;;;7.20;6.53;;;12.00;99.90;;;;;;4981325;28;20456;-83
2022/10/04 21:19:43;;;;;;;6.73;6.13;;;12.00;99.90;;;;;;4982271;28;20442;-83
2022/10/04 21:22:30;;;;;;;7.37;6.30;;;12.00;99.90;;;;;;4965632;29;20953;-84
2022/10/04 21:24:58;;;;;;;8.23;7.30;;;11.90;99.90;;;;;;4966963;28;20505;-84
2022/10/04 21:27:29;;;;;;;7.63;5.83;;;12.00;99.90;;;;;;4968015;29;20466;-84
2022/10/04 21:29:56;;;;;;;8.43;6.07;;;11.90;99.90;;;;;;4978772;28;20545;-85
2022/10/04 21:32:23;;;;;;;7.33;6.63;;;12.00;99.90;;;;;;4987223;28;20534;-85
2022/10/04 21:34:50;;;;;;;6.63;6.03;;;12.00;99.90;;;;;;4987485;28;20475;-85
2022/10/04 21:37:17;;;;;;;7.60;6.10;;;11.90;99.90;;;;;;4987661;28;21052;-85
2022/10/04 21:39:44;;;;;;;8.20;7.50;;;11.90;99.90;;;;;;4987442;28;20447;-85
2022/10/04 21:42:11;;;;;;;6.87;6.37;;;11.90;99.90;;;;;;4987801;28;20820;-85
2022/10/04 21:44:39;;;;;;;5.90;5.03;;;11.90;99.90;;;;;;4987624;28;20484;-86
2022/10/04 21:47:06;;;;;;;8.20;7.30;;;11.90;99.90;;;;;;4986937;28;20991;-85
2022/10/04 21:49:33;;;;;;;7.90;7.13;;;11.90;99.90;;;;;;4987076;28;20549;-84
2022/10/04 21:52:00;;;;;;;7.27;6.57;;;11.80;99.90;;;;;;4986866;28;20447;-85
2022/10/04 21:54:26;;;;;;;5.90;5.40;;;11.80;99.90;;;;;;4985870;28;20497;-84
2022/10/04 21:56:53;;;;;;;6.67;6.07;;;11.80;99.90;;;;;;4984838;28;20453;-84
2022/10/04 21:59:20;;;;;;;8.20;6.90;;;11.80;99.90;;;;;;4985090;28;20977;-85
2022/10/04 22:01:48;;;;;;;9.20;8.20;;;11.70;99.90;;;;;;4985573;28;20458;-84
2022/10/04 22:04:15;;;;;;;9.23;7.77;;;11.70;99.90;;;;;;4985247;28;20475;-84
2022/10/04 22:06:42;;;;;;;11.03;7.70;;;11.70;99.90;;;;;;4985291;28;20454;-85
2022/10/04 22:09:09;;;;;;;8.07;7.23;;;11.70;99.90;;;;;;4984686;28;20455;-85
2022/10/04 22:11:36;;;;;;;13.13;8.30;;;11.70;99.90;;;;;;4986303;28;20832;-84
2022/10/04 22:14:03;;;;;;;10.63;8.40;;;11.50;99.90;;;;;;4985260;28;20501;-84
2022/10/04 22:16:30;;;;;;;9.00;8.10;;;11.60;99.90;;;;;;4986689;28;20460;-83
2022/10/04 22:18:58;;;;;;;7.23;6.53;;;11.50;99.90;;;;;;4992125;28;20454;-83
2022/10/04 22:21:25;;;;;;;8.27;7.47;;;11.60;99.90;;;;;;4992537;28;20455;-82
2022/10/04 22:23:52;;;;;;;9.53;6.63;;;11.60;99.90;;;;;;4987876;28;20476;-86
2022/10/04 22:26:20;;;;;;;15.53;8.77;;;11.60;99.90;;;;;;4984522;28;20462;-84
2022/10/04 22:28:49;;;;;;;9.03;8.20;;;11.60;99.90;;;;;;4984146;28;20442;-84
2022/10/04 22:31:18;;;;;;;9.13;8.30;;;11.60;99.90;;;;;;4985248;28;20477;-85
2022/10/04 22:33:46;;;;;;;8.10;7.33;;;11.60;99.90;;;;;;4984394;28;20503;-85
2022/10/04 22:36:18;;;;;;;8.30;7.50;;;11.50;99.90;;;;;;4985414;28;21079;-84
2022/10/04 22:38:49;;;;;;;9.90;7.20;;;11.50;99.90;;;;;;4985180;28;20434;-86
2022/10/04 22:41:18;;;;;;;9.50;8.60;;;11.40;99.90;;;;;;4984469;28;20468;-85
2022/10/04 22:43:45;;;;;;;10.70;8.87;;;11.40;99.90;;;;;;4983957;28;20474;-86
2022/10/04 22:46:15;;;;;;;8.53;7.70;;;11.30;99.90;;;;;;4983820;28;20463;-85
2022/10/04 22:48:42;;;;;;;8.77;8.00;;;11.30;99.90;;;;;;4983784;28;20451;-85
2022/10/04 22:51:11;;;;;;;11.53;7.83;;;11.30;99.90;;;;;;4983881;28;20538;-85
2022/10/04 22:53:42;;;;;;;9.40;8.57;;;11.30;99.90;;;;;;4984011;28;20491;-85
2022/10/04 22:56:11;;;;;;;10.03;7.77;;;11.30;99.90;;;;;;4983109;28;20462;-85